Terminal Aerodrome Forecast
Issued by NWS Wakefield, VA

Home | Current Version | Previous Version | Text Only | Print | Product List | Glossary On
Versions: 1 2 3 4 5 6 7 8 9 10 11 12 13
000
FTUS41 KAKQ 241100
TAFRIC
TAF
KRIC 241135Z 2412/2512 20013KT P6SM BKN025
     FM241400 21014G21KT P6SM SCT020 BKN035
     FM242300 22010KT P6SM BKN030=

USA.gov is the U.S. government's official web portal to all federal, state and local government web resources and services.